Time;durP1;ratioP1;P1;durP2;ratioP2;P2;SDS_P1;SDS_P2;PMS_P1;PMS_P2;Temp;Humidity;BMP_temperature;BMP_pressure;BME280_temperature;BME280_humidity;BME280_pressure;Samples;Min_cycle;Max_cycle;Signal;HPM_P1;HPM_P2
2023/04/20 00:00:26;;;;;;;6.38;2.50;;;;;;;6.39;70.88;102082.66;5223814;28;20033;-68
2023/04/20 00:02:58;;;;;;;4.55;2.33;;;;;;;6.37;71.18;102083.66;5217310;28;20140;-67
2023/04/20 00:05:30;;;;;;;8.88;2.78;;;;;;;6.36;69.89;102077.44;5225354;28;20028;-67
2023/04/20 00:08:02;;;;;;;7.25;2.75;;;;;;;6.32;73.19;102075.84;5222318;28;20396;-67
2023/04/20 00:10:33;;;;;;;5.60;2.35;;;;;;;6.34;74.13;102075.78;5220157;28;20040;-67
2023/04/20 00:13:05;;;;;;;6.18;2.70;;;;;;;6.31;69.62;102070.59;5221828;28;20032;-67
2023/04/20 00:15:37;;;;;;;6.70;2.83;;;;;;;6.27;70.29;102067.22;5224197;28;20167;-67
2023/04/20 00:18:08;;;;;;;8.55;3.10;;;;;;;6.28;69.94;102069.81;5227136;28;20442;-67
2023/04/20 00:20:40;;;;;;;5.57;2.78;;;;;;;6.29;70.74;102065.38;5226778;28;20126;-67
2023/04/20 00:23:11;;;;;;;5.10;2.55;;;;;;;6.23;71.72;102061.19;5225403;28;20037;-67
2023/04/20 00:25:42;;;;;;;4.53;2.78;;;;;;;6.24;69.93;102054.94;5227821;28;20030;-67
2023/04/20 00:28:14;;;;;;;6.55;3.10;;;;;;;6.22;70.25;102048.84;5224915;28;20091;-67
2023/04/20 00:30:45;;;;;;;8.05;2.67;;;;;;;6.19;70.12;102043.66;5225560;28;20088;-67
2023/04/20 00:33:17;;;;;;;5.75;2.60;;;;;;;6.16;70.27;102043.78;5224162;28;20049;-67
2023/04/20 00:35:48;;;;;;;5.85;2.70;;;;;;;6.16;71.62;102046.44;5234486;28;20096;-67
2023/04/20 00:38:20;;;;;;;5.20;2.53;;;;;;;6.14;70.63;102026.22;5228917;28;20037;-67
2023/04/20 00:40:53;;;;;;;4.95;2.55;;;;;;;6.08;70.82;102029.97;5223891;28;20568;-67
2023/04/20 00:43:24;;;;;;;5.85;2.70;;;;;;;6.07;70.43;102028.25;5226671;28;20069;-67
2023/04/20 00:45:56;;;;;;;5.55;2.50;;;;;;;6.06;72.57;102027.38;5226355;28;20140;-67
2023/04/20 00:48:27;;;;;;;7.25;3.00;;;;;;;6.03;71.33;102024.84;5231567;28;20514;-67
2023/04/20 00:51:00;;;;;;;8.15;2.90;;;;;;;6.00;72.13;102018.78;5229431;28;20380;-67
2023/04/20 00:53:32;;;;;;;5.65;2.70;;;;;;;5.94;71.28;102006.63;5227566;28;20175;-67
2023/04/20 00:56:05;;;;;;;8.48;2.55;;;;;;;5.94;70.37;102005.75;5228743;28;20030;-67
2023/04/20 00:58:36;;;;;;;6.13;2.70;;;;;;;5.95;71.94;102002.19;5229286;28;20040;-67
2023/04/20 01:01:09;;;;;;;7.53;2.70;;;;;;;5.88;70.93;101997.13;5224958;28;20052;-67
2023/04/20 01:03:41;;;;;;;6.55;2.08;;;;;;;5.86;71.23;101988.38;5227939;28;20034;-67
2023/04/20 01:06:13;;;;;;;5.90;2.38;;;;;;;5.86;71.02;101985.72;5224863;28;20384;-67
2023/04/20 01:08:47;;;;;;;5.20;2.33;;;;;;;5.83;70.87;101988.50;5226833;28;20033;-67
2023/04/20 01:11:18;;;;;;;6.50;2.22;;;;;;;5.83;71.17;101991.16;5223350;28;20043;-67
2023/04/20 01:13:49;;;;;;;5.35;2.58;;;;;;;5.84;72.03;101990.22;5223548;28;20071;-67
2023/04/20 01:16:21;;;;;;;5.07;2.40;;;;;;;5.78;73.47;101977.22;5224549;28;20033;-67
2023/04/20 01:18:53;;;;;;;7.25;2.42;;;;;;;5.76;73.93;101968.47;5222865;28;20045;-67
2023/04/20 01:21:24;;;;;;;7.13;2.70;;;;;;;5.76;73.45;101970.25;5221211;28;20424;-67
2023/04/20 01:23:56;;;;;;;6.53;2.72;;;;;;;5.74;75.88;101966.81;5233077;28;20055;-67
2023/04/20 01:26:27;;;;;;;5.38;2.17;;;;;;;5.70;75.00;101961.63;5232721;28;20133;-67
2023/04/20 01:28:59;;;;;;;7.20;2.47;;;;;;;5.69;74.44;101957.25;5227014;28;20030;-67
2023/04/20 01:31:30;;;;;;;6.63;2.92;;;;;;;5.65;76.45;101968.88;5234035;28;20028;-67
2023/04/20 01:34:02;;;;;;;7.25;3.03;;;;;;;5.64;75.06;101943.31;5226226;28;20060;-67
2023/04/20 01:36:33;;;;;;;6.80;2.40;;;;;;;5.61;74.87;101946.06;5228326;28;20041;-67
2023/04/20 01:39:05;;;;;;;4.25;2.30;;;;;;;5.62;75.78;101942.53;5238689;28;20032;-68
2023/04/20 01:41:37;;;;;;;6.72;2.50;;;;;;;5.59;75.14;101939.97;5233996;28;20040;-67
2023/04/20 01:44:09;;;;;;;7.38;2.40;;;;;;;5.57;77.72;101943.63;5236193;28;20060;-67
2023/04/20 01:46:40;;;;;;;6.00;2.28;;;;;;;5.56;76.63;101936.56;5226920;28;20033;-67
2023/04/20 01:49:12;;;;;;;5.20;2.80;;;;;;;5.56;77.18;101936.56;5228232;28;20660;-68
2023/04/20 01:51:43;;;;;;;6.25;2.60;;;;;;;5.54;77.84;101930.47;5231532;28;20038;-67
2023/04/20 01:54:14;;;;;;;6.57;2.42;;;;;;;5.53;77.69;101931.41;5228422;28;20033;-67
2023/04/20 01:56:46;;;;;;;6.97;2.30;;;;;;;5.52;79.56;101922.59;5221454;28;20098;-67
2023/04/20 01:59:18;;;;;;;5.88;2.67;;;;;;;5.45;78.67;101918.47;5224572;28;20045;-67
2023/04/20 02:01:49;;;;;;;7.47;2.65;;;;;;;5.41;79.91;101909.78;5222740;28;20053;-67
2023/04/20 02:04:21;;;;;;;5.25;2.17;;;;;;;5.45;83.02;101915.84;5228991;28;20033;-67
2023/04/20 02:06:52;;;;;;;5.43;2.33;;;;;;;5.38;80.53;101906.38;5231385;28;20064;-67
2023/04/20 02:09:24;;;;;;;6.63;2.60;;;;;;;5.36;79.86;101900.28;5234650;28;20026;-67
2023/04/20 02:11:55;;;;;;;5.28;2.30;;;;;;;5.32;80.92;101901.34;5229730;28;20439;-67
2023/04/20 02:14:27;;;;;;;4.45;2.25;;;;;;;5.32;81.45;101893.38;5230669;28;20104;-67
2023/04/20 02:16:59;;;;;;;4.25;2.50;;;;;;;5.29;80.58;101891.69;5233701;28;20025;-67
2023/04/20 02:19:31;;;;;;;7.75;2.28;;;;;;;5.27;81.58;101891.78;5226491;28;20036;-67
2023/04/20 02:22:02;;;;;;;5.50;2.53;;;;;;;5.25;83.24;101890.09;5238791;28;20024;-67
2023/04/20 02:24:33;;;;;;;6.35;2.72;;;;;;;5.20;83.50;101885.00;5234313;28;20037;-67
2023/04/20 02:27:05;;;;;;;5.68;2.53;;;;;;;5.19;82.66;101887.69;5229198;28;20033;-67
2023/04/20 02:29:36;;;;;;;9.57;2.70;;;;;;;5.18;82.95;101878.00;5228559;28;20033;-67
2023/04/20 02:32:08;;;;;;;5.10;2.50;;;;;;;5.17;83.76;101874.50;5234306;28;20471;-67
2023/04/20 02:34:39;;;;;;;3.85;2.10;;;;;;;5.12;84.48;101873.84;5223664;28;20053;-67
2023/04/20 02:37:10;;;;;;;5.50;2.47;;;;;;;5.08;84.83;101869.56;5224695;28;20034;-67
2023/04/20 02:39:42;;;;;;;4.88;2.50;;;;;;;5.08;87.22;101877.50;5222317;28;20045;-67
2023/04/20 02:42:13;;;;;;;5.72;2.60;;;;;;;5.04;86.70;101870.59;5223592;28;20052;-67
2023/04/20 02:44:45;;;;;;;6.07;2.35;;;;;;;5.05;87.55;101867.03;5221874;28;20350;-67
2023/04/20 02:47:16;;;;;;;4.80;2.83;;;;;;;4.98;88.25;101878.75;5223162;28;20637;-67
2023/04/20 02:49:47;;;;;;;6.28;2.53;;;;;;;4.99;90.34;101869.91;5222707;28;20108;-67
2023/04/20 02:52:19;;;;;;;7.53;2.90;;;;;;;4.96;90.11;101862.94;5221573;28;20442;-67
2023/04/20 02:54:50;;;;;;;5.07;2.35;;;;;;;4.95;91.09;101861.22;5225715;28;20033;-68
2023/04/20 02:57:24;;;;;;;8.40;3.05;;;;;;;4.95;92.92;101860.34;5224582;28;20131;-67
2023/04/20 02:59:55;;;;;;;8.13;2.80;;;;;;;4.91;93.25;101860.47;5222983;28;20130;-67
2023/04/20 03:02:26;;;;;;;5.43;2.90;;;;;;;4.90;93.54;101858.75;5225297;28;20057;-67
2023/04/20 03:04:58;;;;;;;4.97;3.03;;;;;;;4.90;94.30;101861.38;5223099;28;20071;-67
2023/04/20 03:07:30;;;;;;;6.30;2.88;;;;;;;4.89;95.36;101851.75;5224015;28;20408;-67
2023/04/20 03:10:01;;;;;;;5.07;2.67;;;;;;;4.93;96.67;101856.91;5217085;28;20368;-67
2023/04/20 03:12:33;;;;;;;5.78;2.92;;;;;;;4.90;97.51;101845.50;5219525;28;20374;-67
2023/04/20 03:15:05;;;;;;;4.82;2.70;;;;;;;4.92;97.43;101837.53;5221467;28;20033;-67
2023/04/20 03:17:36;;;;;;;6.10;2.75;;;;;;;4.88;98.24;101836.78;5224053;28;20029;-67
2023/04/20 03:20:08;;;;;;;6.25;3.08;;;;;;;4.94;98.60;101837.47;5221318;28;20029;-67
2023/04/20 03:22:39;;;;;;;8.20;2.83;;;;;;;4.91;99.80;101835.81;5221850;28;20037;-67
2023/04/20 03:25:11;;;;;;;7.10;2.80;;;;;;;4.90;100.00;101832.28;5222133;28;20044;-67
2023/04/20 03:27:44;;;;;;;6.35;3.17;;;;;;;4.90;100.00;101824.34;5223278;28;20034;-67
2023/04/20 03:30:15;;;;;;;7.13;3.77;;;;;;;4.94;100.00;101827.75;5220110;28;20047;-67
2023/04/20 03:32:47;;;;;;;7.45;3.25;;;;;;;4.96;100.00;101835.63;5222102;28;20284;-67
2023/04/20 03:35:19;;;;;;;6.07;2.55;;;;;;;4.95;100.00;101824.22;5221560;28;20381;-67
2023/04/20 03:37:54;;;;;;;6.25;2.97;;;;;;;4.98;100.00;101824.06;5222294;28;20091;-67
2023/04/20 03:40:25;;;;;;;8.27;3.85;;;;;;;4.97;100.00;101821.50;5220007;28;20116;-67
2023/04/20 03:42:57;;;;;;;7.20;3.00;;;;;;;5.01;100.00;101820.47;5223700;28;20026;-67
2023/04/20 03:45:28;;;;;;;7.55;3.17;;;;;;;5.04;100.00;101809.75;5219499;28;20438;-67
2023/04/20 03:47:59;;;;;;;6.72;3.53;;;;;;;5.06;100.00;101803.50;5219771;28;20108;-67
2023/04/20 03:50:31;;;;;;;6.32;3.63;;;;;;;5.07;100.00;101804.38;5222528;28;20041;-67
2023/04/20 03:53:02;;;;;;;5.40;3.42;;;;;;;5.09;100.00;101807.81;5227399;28;20052;-67
2023/04/20 03:55:33;;;;;;;6.90;3.08;;;;;;;5.11;100.00;101805.97;5222692;28;20033;-67
2023/04/20 03:58:08;;;;;;;7.55;3.42;;;;;;;5.16;100.00;101806.66;5223729;28;20034;-67
2023/04/20 04:00:39;;;;;;;7.13;3.33;;;;;;;5.22;100.00;101806.41;5224065;28;20033;-67
2023/04/20 04:03:11;;;;;;;5.63;3.35;;;;;;;5.22;100.00;101801.13;5177577;28;1235518;-67
2023/04/20 04:05:42;;;;;;;5.82;3.45;;;;;;;5.25;100.00;101801.03;5220571;28;20061;-67
2023/04/20 04:08:14;;;;;;;7.75;3.45;;;;;;;5.28;100.00;101797.38;5220595;28;20782;-67
2023/04/20 04:10:45;;;;;;;5.97;3.22;;;;;;;5.32;100.00;101792.84;5222646;28;20030;-67
2023/04/20 04:13:16;;;;;;;7.28;3.38;;;;;;;5.34;100.00;101785.69;5221933;28;20450;-67
2023/04/20 04:15:49;;;;;;;6.78;3.63;;;;;;;5.37;100.00;101790.84;5223464;28;20053;-68
2023/04/20 04:18:21;;;;;;;6.65;3.30;;;;;;;5.40;100.00;101796.88;5217582;28;20026;-67
2023/04/20 04:20:52;;;;;;;7.35;3.50;;;;;;;5.43;100.00;101794.13;5218620;28;20030;-67
2023/04/20 04:23:24;;;;;;;6.03;3.42;;;;;;;5.44;100.00;101782.59;5224268;28;20432;-67
2023/04/20 04:25:56;;;;;;;6.78;3.63;;;;;;;5.47;100.00;101781.66;5223934;28;20491;-67
2023/04/20 04:28:27;;;;;;;5.25;3.15;;;;;;;5.48;100.00;101765.72;5220727;28;20032;-67
2023/04/20 04:31:05;;;;;;;8.57;3.47;;;;;;;5.55;100.00;101776.03;5219187;28;20934;-67
2023/04/20 04:33:36;;;;;;;10.88;4.53;;;;;;;5.54;100.00;101761.91;5223366;28;20021;-67
2023/04/20 04:36:08;;;;;;;6.80;3.97;;;;;;;5.59;100.00;101753.81;5225769;28;20378;-67
2023/04/20 04:38:43;;;;;;;8.90;3.70;;;;;;;5.61;100.00;101744.00;5235341;28;20036;-67
2023/04/20 04:41:15;;;;;;;6.05;3.63;;;;;;;5.65;100.00;101748.25;5223922;28;20030;-67
2023/04/20 04:43:47;;;;;;;7.32;3.22;;;;;;;5.67;100.00;101749.06;5225926;28;20492;-67
2023/04/20 04:46:18;;;;;;;7.47;3.55;;;;;;;5.73;100.00;101737.34;5231680;28;20035;-67
2023/04/20 04:48:50;;;;;;;6.65;3.30;;;;;;;5.76;100.00;101732.78;5229010;28;20705;-67
2023/04/20 04:51:22;;;;;;;10.35;3.65;;;;;;;5.80;100.00;101734.38;5223267;28;20029;-67
2023/04/20 04:53:53;;;;;;;5.95;3.80;;;;;;;5.86;100.00;101742.06;5230823;28;20123;-67
2023/04/20 04:56:25;;;;;;;7.43;3.72;;;;;;;5.88;100.00;101742.00;5234856;28;20034;-67
2023/04/20 04:58:56;;;;;;;8.20;3.83;;;;;;;5.93;100.00;101734.72;5227365;28;20088;-68
2023/04/20 05:01:28;;;;;;;6.28;3.63;;;;;;;5.95;100.00;101738.19;5230355;28;20163;-67
2023/04/20 05:04:00;;;;;;;6.40;3.58;;;;;;;5.97;100.00;101724.91;5234688;28;20033;-67
2023/04/20 05:06:31;;;;;;;5.78;3.42;;;;;;;6.02;100.00;101722.88;5224925;28;20083;-67
2023/04/20 05:09:03;;;;;;;9.85;5.05;;;;;;;6.04;100.00;101735.16;5234908;28;20391;-67
2023/04/20 05:11:34;;;;;;;8.63;3.72;;;;;;;6.11;100.00;101741.03;5234458;28;20473;-67
2023/04/20 05:14:06;;;;;;;9.85;3.85;;;;;;;6.15;100.00;101728.53;5227178;28;20357;-67
2023/04/20 05:16:37;;;;;;;7.00;4.05;;;;;;;6.20;100.00;101724.75;5236664;28;20029;-67
2023/04/20 05:19:08;;;;;;;6.25;3.95;;;;;;;6.24;100.00;101733.44;5230759;28;20061;-67
2023/04/20 05:21:40;;;;;;;5.68;3.50;;;;;;;6.28;100.00;101735.00;5231693;28;20033;-67
2023/04/20 05:24:11;;;;;;;7.03;4.18;;;;;;;6.32;100.00;101730.44;5233070;28;20021;-67
2023/04/20 05:26:42;;;;;;;6.57;3.50;;;;;;;6.34;100.00;101733.88;5228193;28;20349;-67
2023/04/20 05:29:15;;;;;;;7.07;4.22;;;;;;;6.36;100.00;101735.53;5231214;28;20025;-67
2023/04/20 05:31:46;;;;;;;8.80;4.32;;;;;;;6.39;100.00;101732.75;5226435;28;20078;-67
2023/04/20 05:34:18;;;;;;;11.20;4.38;;;;;;;6.42;100.00;101731.75;5232167;28;20021;-67
2023/04/20 05:36:50;;;;;;;8.63;3.90;;;;;;;6.44;100.00;101733.41;5233577;28;20065;-67
2023/04/20 05:39:22;;;;;;;10.55;4.53;;;;;;;6.46;100.00;101736.84;5233045;28;20053;-67
2023/04/20 05:41:54;;;;;;;9.65;4.53;;;;;;;6.48;100.00;101735.00;5230639;28;20436;-67
2023/04/20 05:44:25;;;;;;;12.73;4.00;;;;;;;6.52;100.00;101742.78;5226371;28;20068;-67
2023/04/20 05:46:56;;;;;;;12.75;4.25;;;;;;;6.54;100.00;101739.16;5235305;28;20028;-67
2023/04/20 05:49:28;;;;;;;12.13;4.32;;;;;;;6.57;100.00;101723.09;5227512;28;20037;-67
2023/04/20 05:52:03;;;;;;;11.38;4.20;;;;;;;6.62;100.00;101725.56;5230611;28;20033;-67
2023/04/20 05:54:34;;;;;;;7.85;4.07;;;;;;;6.62;100.00;101728.19;5233192;28;20025;-67
2023/04/20 05:57:05;;;;;;;11.07;4.22;;;;;;;6.66;100.00;101724.47;5231479;28;20067;-66
2023/04/20 05:59:37;;;;;;;8.07;3.85;;;;;;;6.68;100.00;101718.16;5232619;28;20100;-67
2023/04/20 06:02:08;;;;;;;17.58;4.30;;;;;;;6.73;100.00;101725.03;5227607;28;21039;-67
2023/04/20 06:04:41;;;;;;;7.15;4.00;;;;;;;6.76;100.00;101725.75;5229704;28;20030;-67
2023/04/20 06:07:12;;;;;;;9.82;4.05;;;;;;;6.80;100.00;101713.22;5232273;28;20044;-67
2023/04/20 06:09:44;;;;;;;8.23;4.00;;;;;;;6.83;100.00;101715.75;5233577;28;20101;-67
2023/04/20 06:12:15;;;;;;;8.57;4.88;;;;;;;6.89;100.00;101711.94;5233359;28;20037;-67
2023/04/20 06:14:46;;;;;;;9.02;4.85;;;;;;;6.91;100.00;101710.94;5226320;28;20032;-67
2023/04/20 06:17:18;;;;;;;11.75;5.00;;;;;;;6.97;100.00;101717.72;5235575;28;20044;-67
2023/04/20 06:19:50;;;;;;;10.25;4.38;;;;;;;7.04;100.00;101709.41;5227804;28;20025;-68
2023/04/20 06:22:21;;;;;;;8.75;4.40;;;;;;;7.09;100.00;101710.97;5231378;28;20061;-67
2023/04/20 06:24:53;;;;;;;9.20;5.22;;;;;;;7.13;100.00;101712.53;5232870;28;20025;-67
2023/04/20 06:27:24;;;;;;;9.48;4.57;;;;;;;7.14;100.00;101712.47;5234603;28;20044;-67
2023/04/20 06:29:56;;;;;;;7.60;4.35;;;;;;;7.17;100.00;101703.50;5234507;28;20026;-67
2023/04/20 06:32:27;;;;;;;12.93;5.10;;;;;;;7.18;100.00;101708.75;5230352;28;20028;-68
2023/04/20 06:34:59;;;;;;;6.68;4.30;;;;;;;7.23;100.00;101709.38;5233171;28;20416;-67
2023/04/20 06:37:30;;;;;;;10.98;4.93;;;;;;;7.29;100.00;101702.03;5229450;28;20099;-67
2023/04/20 06:40:06;;;;;;;8.18;4.80;;;;;;;7.31;100.00;101695.75;5231519;28;20387;-67
2023/04/20 06:42:38;;;;;;;7.95;4.72;;;;;;;7.36;100.00;101706.13;5227289;28;20025;-67
2023/04/20 06:45:10;;;;;;;6.63;4.43;;;;;;;7.38;100.00;101704.25;5231371;28;20029;-67
2023/04/20 06:47:41;;;;;;;8.48;4.40;;;;;;;7.43;100.00;101688.97;5227480;28;20144;-67
2023/04/20 06:50:13;;;;;;;9.52;5.03;;;;;;;7.49;100.00;101687.78;5225128;28;20463;-67
2023/04/20 06:52:44;;;;;;;9.25;4.70;;;;;;;7.51;100.00;101689.44;5225437;28;20022;-67
2023/04/20 06:55:16;;;;;;;8.00;4.50;;;;;;;7.55;100.00;101698.97;5230608;28;20106;-67
2023/04/20 06:57:48;;;;;;;7.57;4.90;;;;;;;7.56;100.00;101694.53;5234591;28;20029;-67
2023/04/20 07:00:19;;;;;;;6.82;4.45;;;;;;;7.59;100.00;101684.63;5235365;28;20033;-67
2023/04/20 07:02:51;;;;;;;8.57;5.05;;;;;;;7.61;100.00;101687.16;5232841;28;20075;-67
2023/04/20 07:05:22;;;;;;;10.25;4.97;;;;;;;7.63;100.00;101685.28;5226041;28;20063;-67
2023/04/20 07:07:54;;;;;;;10.40;4.90;;;;;;;7.65;100.00;101684.28;5226506;28;20029;-67
2023/04/20 07:10:26;;;;;;;8.55;5.00;;;;;;;7.66;100.00;101693.97;5234394;28;20033;-67
2023/04/20 07:12:57;;;;;;;10.30;5.32;;;;;;;7.67;100.00;101686.88;5231943;28;20028;-67
2023/04/20 07:15:29;;;;;;;10.38;4.97;;;;;;;7.63;100.00;101685.28;5229126;28;20030;-67
2023/04/20 07:18:00;;;;;;;10.93;5.32;;;;;;;7.66;100.00;101674.53;5224862;28;20049;-67
2023/04/20 07:20:32;;;;;;;9.73;4.85;;;;;;;7.62;100.00;101679.13;5229682;28;20067;-67
2023/04/20 07:23:03;;;;;;;9.02;4.55;;;;;;;7.62;100.00;101681.78;5229950;28;20053;-67
2023/04/20 07:25:35;;;;;;;8.13;4.40;;;;;;;7.62;100.00;101675.63;5228531;28;20108;-67
2023/04/20 07:28:06;;;;;;;9.93;4.18;;;;;;;7.61;100.00;101690.69;5225691;28;20105;-67
2023/04/20 07:30:38;;;;;;;7.80;4.25;;;;;;;7.61;100.00;101695.13;5223100;28;20539;-67
2023/04/20 07:33:10;;;;;;;8.88;4.53;;;;;;;7.59;100.00;101694.34;5233378;28;20830;-67
2023/04/20 07:35:41;;;;;;;8.60;4.38;;;;;;;7.59;100.00;101687.28;5231423;28;20025;-67
2023/04/20 07:38:14;;;;;;;7.35;4.60;;;;;;;7.61;100.00;101696.03;5227809;28;20083;-67
2023/04/20 07:40:45;;;;;;;9.35;4.22;;;;;;;7.64;100.00;101687.88;5231512;28;20533;-67
2023/04/20 07:43:17;;;;;;;6.97;4.05;;;;;;;7.72;100.00;101683.97;5226755;28;20112;-67
2023/04/20 07:45:48;;;;;;;6.90;4.47;;;;;;;7.74;100.00;101682.09;5231842;28;20032;-66
2023/04/20 07:48:20;;;;;;;6.18;4.57;;;;;;;7.72;100.00;101681.31;5230729;28;20055;-67
2023/04/20 07:50:51;;;;;;;9.63;4.40;;;;;;;7.74;100.00;101693.56;5226504;28;20021;-67
2023/04/20 07:53:22;;;;;;;7.43;4.40;;;;;;;7.78;100.00;101681.84;5226776;28;20765;-66
2023/04/20 07:55:54;;;;;;;10.00;4.82;;;;;;;7.87;100.00;101687.66;5227032;28;20104;-67
2023/04/20 07:58:25;;;;;;;7.57;4.20;;;;;;;7.94;100.00;101684.59;5226829;28;20029;-67
2023/04/20 08:00:57;;;;;;;9.43;4.40;;;;;;;8.02;100.00;101676.22;5230827;28;20035;-67
2023/04/20 08:03:28;;;;;;;8.25;4.25;;;;;;;8.10;100.00;101684.66;5227594;28;20050;-67
2023/04/20 08:05:59;;;;;;;5.32;3.67;;;;;;;8.18;100.00;101682.44;5232043;28;20076;-67
2023/04/20 08:08:31;;;;;;;9.80;4.15;;;;;;;8.23;100.00;101682.22;5225243;28;20395;-67
2023/04/20 08:11:02;;;;;;;7.68;4.15;;;;;;;8.29;100.00;101687.19;5229765;28;21113;-67
2023/04/20 08:13:36;;;;;;;7.80;4.53;;;;;;;8.32;100.00;101676.41;5224824;28;20025;-67
2023/04/20 08:16:07;;;;;;;6.00;3.95;;;;;;;8.40;100.00;101671.53;5227313;28;20515;-67
2023/04/20 08:18:38;;;;;;;5.63;3.78;;;;;;;8.48;100.00;101679.13;5229233;28;20144;-67
2023/04/20 08:21:10;;;;;;;7.50;4.07;;;;;;;8.54;100.00;101672.59;5231944;28;20029;-66
2023/04/20 08:23:41;;;;;;;11.00;4.10;;;;;;;8.58;100.00;101669.69;5230987;28;20036;-67
2023/04/20 08:26:16;;;;;;;6.50;3.90;;;;;;;8.66;100.00;101671.06;5228445;28;20024;-67
2023/04/20 08:28:47;;;;;;;;;;;;;;;8.79;100.00;101664.97;5231121;28;20025;-67
2023/04/20 08:31:18;;;;;;;9.40;4.60;;;;;;;8.79;100.00;101650.81;5223525;28;19917;-67
2023/04/20 08:33:50;;;;;;;9.07;4.45;;;;;;;8.90;100.00;101655.53;5233044;28;20095;-67
2023/04/20 08:36:22;;;;;;;6.95;4.18;;;;;;;8.94;100.00;101654.44;5237300;28;20358;-67
2023/04/20 08:39:06;;;;;;;6.88;3.85;;;;;;;9.05;100.00;101656.47;5230678;28;20108;-67
2023/04/20 08:41:38;;;;;;;7.38;3.67;;;;;;;9.31;100.00;101637.19;5238225;28;20064;-67
2023/04/20 08:44:09;;;;;;;5.78;3.78;;;;;;;9.33;100.00;101645.09;5236670;28;20591;-67
2023/04/20 08:46:46;;;;;;;5.57;3.47;;;;;;;9.35;100.00;101640.53;5234429;28;20032;-67
2023/04/20 08:49:19;;;;;;;6.85;3.72;;;;;;;9.34;100.00;101636.13;5237310;28;20021;-67
2023/04/20 08:51:51;;;;;;;8.60;4.13;;;;;;;9.36;100.00;101637.78;5228616;28;20057;-67
2023/04/20 08:54:23;;;;;;;5.70;3.50;;;;;;;9.34;100.00;101642.34;5228686;28;20527;-67
2023/04/20 08:56:54;;;;;;;6.28;3.67;;;;;;;9.42;100.00;101641.88;5231756;28;20029;-67
2023/04/20 08:59:26;;;;;;;7.93;3.75;;;;;;;9.37;100.00;101627.97;5239136;28;20530;-67
2023/04/20 09:02:10;;;;;;;6.72;3.80;;;;;;;9.46;100.00;101640.75;5236635;28;20475;-67
2023/04/20 09:04:42;;;;;;;8.90;3.88;;;;;;;9.58;100.00;101634.69;5234791;28;20439;-67
2023/04/20 09:07:19;;;;;;;7.22;3.80;;;;;;;9.57;100.00;101629.47;5236743;28;20089;-67
2023/04/20 09:09:57;;;;;;;5.85;3.80;;;;;;;9.56;100.00;101622.41;5240693;28;20018;-67
2023/04/20 09:12:39;;;;;;;6.78;3.40;;;;;;;9.54;100.00;101629.66;5236384;28;20022;-67
2023/04/20 09:15:23;;;;;;;7.18;3.70;;;;;;;9.56;100.00;101622.41;5234935;28;20737;-67
2023/04/20 09:17:55;;;;;;;8.20;3.42;;;;;;;9.58;100.00;101629.34;5231670;28;20033;-67
2023/04/20 09:20:33;;;;;;;7.70;3.83;;;;;;;9.59;100.00;101628.41;5235349;28;20029;-67
2023/04/20 09:23:23;;;;;;;5.72;3.33;;;;;;;9.69;100.00;101636.72;5229341;28;20033;-67
2023/04/20 09:25:54;;;;;;;5.82;3.00;;;;;;;9.69;100.00;101625.22;5236423;28;20041;-67
2023/04/20 09:28:37;;;;;;;4.85;2.95;;;;;;;9.74;100.00;101629.31;5231740;28;20030;-67
2023/04/20 09:31:20;;;;;;;8.48;3.35;;;;;;;9.78;100.00;101625.50;5221162;28;20030;-67
2023/04/20 09:34:00;;;;;;;4.95;3.25;;;;;;;9.92;100.00;101629.16;5223941;28;20026;-68
2023/04/20 09:36:45;;;;;;;5.72;3.50;;;;;;;10.02;100.00;101625.78;5229342;28;20525;-67
2023/04/20 09:39:19;;;;;;;5.80;3.33;;;;;;;10.17;100.00;101642.66;5232554;28;20025;-67
2023/04/20 09:41:51;;;;;;;7.10;3.70;;;;;;;10.23;100.00;101632.56;5227524;28;20049;-67
2023/04/20 09:44:23;;;;;;;5.32;3.35;;;;;;;10.11;100.00;101634.19;5230399;28;20029;-67
2023/04/20 09:46:54;;;;;;;6.38;3.40;;;;;;;10.05;100.00;101631.88;5243030;28;20091;-67
2023/04/20 09:49:26;;;;;;;8.45;3.20;;;;;;;9.91;100.00;101633.59;5229428;28;20044;-67
2023/04/20 09:52:01;;;;;;;6.25;3.70;;;;;;;9.86;100.00;101627.72;5223873;28;20037;-67
2023/04/20 09:54:36;;;;;;;4.65;3.17;;;;;;;9.76;100.00;101623.88;5235145;28;20078;-67
2023/04/20 09:57:09;;;;;;;6.63;3.60;;;;;;;9.67;100.00;101611.97;5226134;28;20033;-67
2023/04/20 09:59:46;;;;;;;6.95;3.40;;;;;;;9.65;100.00;101607.69;5231935;28;20039;-67
2023/04/20 10:02:17;;;;;;;6.85;3.40;;;;;;;9.79;100.00;101599.72;5235850;28;20097;-67
2023/04/20 10:04:56;;;;;;;4.93;3.15;;;;;;;9.89;100.00;101598.19;5236015;28;20064;-67
2023/04/20 10:07:32;;;;;;;7.50;3.20;;;;;;;10.07;100.00;101604.19;5234933;28;20026;-67
2023/04/20 10:10:14;;;;;;;5.30;3.05;;;;;;;10.31;100.00;101591.16;5224762;28;20038;-67
2023/04/20 10:12:54;;;;;;;4.97;3.33;;;;;;;10.40;100.00;101595.91;5227256;28;20148;-67
2023/04/20 10:15:40;;;;;;;7.90;3.97;;;;;;;10.62;100.00;101589.19;5228434;28;20029;-67
2023/04/20 10:18:22;;;;;;;6.43;3.55;;;;;;;10.54;100.00;101602.16;5232604;28;20132;-67
2023/04/20 10:21:07;;;;;;;6.68;3.58;;;;;;;10.52;100.00;101591.59;5234836;28;20021;-67
2023/04/20 10:23:51;;;;;;;10.65;3.45;;;;;;;10.58;100.00;101601.00;5238716;28;20037;-67
2023/04/20 10:26:23;;;;;;;7.20;3.55;;;;;;;10.44;100.00;101599.25;5241999;28;20029;-67
2023/04/20 10:28:54;;;;;;;5.90;3.28;;;;;;;10.41;100.00;101594.09;5232270;28;20026;-67
2023/04/20 10:31:37;;;;;;;6.80;3.40;;;;;;;10.36;100.00;101594.38;5235313;28;20523;-67
2023/04/20 10:34:08;;;;;;;5.85;4.05;;;;;;;10.27;100.00;101600.28;5221259;28;20026;-67
2023/04/20 10:36:40;;;;;;;6.38;3.47;;;;;;;10.17;100.00;101588.47;5241396;28;20040;-68
2023/04/20 10:39:20;;;;;;;5.63;3.40;;;;;;;10.11;100.00;101596.88;5241016;28;20429;-67
2023/04/20 10:41:54;;;;;;;6.78;3.78;;;;;;;10.02;100.00;101593.81;5233766;28;20095;-67
2023/04/20 10:44:26;;;;;;;5.43;3.43;;;;;;;10.05;100.00;101587.44;5221588;28;20013;-67
2023/04/20 10:46:57;;;;;;;8.15;3.75;;;;;;;10.24;100.00;101579.16;5235042;28;20490;-67
2023/04/20 10:49:30;;;;;;;6.63;3.85;;;;;;;10.39;100.00;101564.88;5230033;28;20352;-67
2023/04/20 10:52:01;;;;;;;5.47;3.60;;;;;;;10.56;100.00;101573.56;5234613;28;20494;-67
2023/04/20 10:54:38;;;;;;;6.50;3.90;;;;;;;10.50;100.00;101569.50;5224747;28;20017;-67
2023/04/20 10:57:15;;;;;;;7.70;3.58;;;;;;;10.56;100.00;101570.91;5227476;28;20032;-67
2023/04/20 10:59:46;;;;;;;5.32;3.65;;;;;;;10.51;100.00;101571.22;5231271;28;20552;-67
2023/04/20 11:02:17;;;;;;;6.63;4.18;;;;;;;10.48;100.00;101574.06;5225003;28;20037;-67
2023/04/20 11:04:49;;;;;;;6.75;3.92;;;;;;;10.48;100.00;101563.41;5231507;28;20029;-67
2023/04/20 11:07:20;;;;;;;5.57;4.00;;;;;;;10.52;100.00;101564.06;5234593;28;20148;-67
2023/04/20 11:09:54;;;;;;;7.07;4.13;;;;;;;10.46;100.00;101564.47;5232918;28;20361;-67
2023/04/20 11:12:25;;;;;;;7.78;4.40;;;;;;;10.42;100.00;101562.94;5223167;28;20348;-70
2023/04/20 11:14:59;;;;;;;7.45;4.68;;;;;;;10.34;100.00;101568.78;5228160;28;20033;-67
2023/04/20 11:17:35;;;;;;;5.88;4.10;;;;;;;10.42;100.00;101561.13;5234111;28;20034;-67
2023/04/20 11:20:12;;;;;;;8.23;4.25;;;;;;;10.36;100.00;101564.19;5229906;28;20035;-68
2023/04/20 11:22:55;;;;;;;6.03;4.35;;;;;;;10.32;100.00;101557.34;5234182;28;20021;-67
2023/04/20 11:25:26;;;;;;;6.53;4.30;;;;;;;10.40;100.00;101550.56;5230246;28;20439;-67
2023/04/20 11:28:06;;;;;;;6.20;4.72;;;;;;;10.50;100.00;101545.47;5232367;28;20017;-67
2023/04/20 11:30:42;;;;;;;7.85;4.47;;;;;;;10.48;100.00;101543.88;5232667;28;20035;-67
2023/04/20 11:33:13;;;;;;;8.98;4.90;;;;;;;10.62;100.00;101527.81;5227164;28;20511;-67
2023/04/20 11:35:44;;;;;;;7.53;5.03;;;;;;;10.69;100.00;101530.94;5222825;28;20037;-67
2023/04/20 11:38:32;;;;;;;9.07;4.85;;;;;;;10.66;100.00;101525.78;5220568;28;20029;-67
2023/04/20 11:41:04;;;;;;;7.70;4.28;;;;;;;10.53;100.00;101525.75;5231682;28;20383;-67
2023/04/20 11:43:35;;;;;;;6.50;4.20;;;;;;;10.40;100.00;101520.38;5232866;28;20034;-68
2023/04/20 11:46:17;;;;;;;8.45;4.65;;;;;;;10.40;100.00;101525.69;5235049;28;20380;-68
2023/04/20 11:48:49;;;;;;;6.18;4.20;;;;;;;10.31;100.00;101521.81;5229080;28;20029;-68
2023/04/20 11:51:20;;;;;;;7.03;4.53;;;;;;;10.27;100.00;101514.06;5228823;28;20478;-68